Time;durP1;ratioP1;P1;durP2;ratioP2;P2;SDS_P1;SDS_P2;PMS_P1;PMS_P2;Temp;Humidity;BMP_temperature;BMP_pressure;BME280_temperature;BME280_humidity;BME280_pressure;Samples;Min_cycle;Max_cycle;Signal;HPM_P1;HPM_P2
2022/01/31 00:00:51;;;;;;;21.83;5.32;;;;;;;;;;5145637;27;20070;-58
2022/01/31 00:03:17;;;;;;;32.85;7.15;;;;;;;;;;5143444;27;20197;-58
2022/01/31 00:05:43;;;;;;;28.08;7.13;;;;;;;;;;5146484;27;20039;-58
2022/01/31 00:08:09;;;;;;;30.45;6.68;;;;;;;;;;5147037;27;20059;-58
2022/01/31 00:10:36;;;;;;;23.58;6.93;;;;;;;;;;5147111;27;20103;-58
2022/01/31 00:13:08;;;;;;;33.72;7.88;;;;;;;;;;5146858;27;20050;-58
2022/01/31 00:15:41;;;;;;;23.65;6.05;;;;;;;;;;5146789;27;20042;-58
2022/01/31 00:18:07;;;;;;;29.65;6.68;;;;;;;;;;5145956;27;20062;-58
2022/01/31 00:20:35;;;;;;;34.17;6.35;;;;;;;;;;5146227;27;20043;-59
2022/01/31 00:23:01;;;;;;;21.67;5.50;;;;;;;;;;5146929;27;20154;-58
2022/01/31 00:25:27;;;;;;;27.05;6.10;;;;;;;;;;5146956;27;20118;-58
2022/01/31 00:27:53;;;;;;;24.10;7.07;;;;;;;;;;5147922;27;20043;-58
2022/01/31 00:30:20;;;;;;;16.90;5.65;;;;;;;;;;5146900;27;20043;-59
2022/01/31 00:32:47;;;;;;;22.55;6.03;;;;;;;;;;5163537;27;20101;-57
2022/01/31 00:35:14;;;;;;;33.65;7.88;;;;;;;;;;5157087;27;20054;-59
2022/01/31 00:37:40;;;;;;;27.42;5.15;;;;;;;;;;5146945;27;20035;-58
2022/01/31 00:40:08;;;;;;;27.83;5.13;;;;;;;;;;5147220;27;20050;-58
2022/01/31 00:42:34;;;;;;;;;;;;;;;;;;5147954;27;20038;-58
2022/01/31 00:45:42;;;;;;;30.80;6.20;;;;;;;;;;5165643;27;20017;-58
2022/01/31 00:48:01;;;;;;;26.30;5.93;;;;;;;;;;5165307;27;20047;-59
2022/01/31 00:50:28;;;;;;;17.20;5.07;;;;;;;;;;5167799;27;20058;-59
2022/01/31 00:52:55;;;;;;;24.13;5.83;;;;;;;;;;5167002;27;20043;-59
2022/01/31 00:55:21;;;;;;;34.33;6.73;;;;;;;;;;5163371;27;20057;-60
2022/01/31 00:57:47;;;;;;;28.65;6.57;;;;;;;;;;5167657;27;20276;-57
2022/01/31 01:00:15;;;;;;;33.85;7.20;;;;;;;;;;5168067;27;20042;-60
2022/01/31 01:02:41;;;;;;;;;;;;;;;;;;5167332;27;20042;-58
2022/01/31 01:05:08;;;;;;;29.48;7.07;;;;;;;;;;5146758;27;19920;-59
2022/01/31 01:07:34;;;;;;;22.90;6.80;;;;;;;;;;5146211;27;20051;-61
2022/01/31 01:10:00;;;;;;;19.88;6.70;;;;;;;;;;5146645;27;20252;-57
2022/01/31 01:12:26;;;;;;;28.70;6.55;;;;;;;;;;5149539;27;20451;-59
2022/01/31 01:14:53;;;;;;;26.83;9.48;;;;;;;;;;5167732;27;20043;-59
2022/01/31 01:17:19;;;;;;;18.98;7.15;;;;;;;;;;5166855;27;20360;-59
2022/01/31 01:19:45;;;;;;;24.80;6.93;;;;;;;;;;5167475;27;20039;-59
2022/01/31 01:22:12;;;;;;;25.40;8.10;;;;;;;;;;5165375;27;20042;-59
2022/01/31 01:24:38;;;;;;;23.50;8.70;;;;;;;;;;5146261;27;20043;-59
2022/01/31 01:27:05;;;;;;;32.35;9.55;;;;;;;;;;5145462;27;20067;-58
2022/01/31 01:29:31;;;;;;;29.77;9.07;;;;;;;;;;5146318;27;20561;-58
2022/01/31 01:31:57;;;;;;;22.92;8.65;;;;;;;;;;5145855;27;20122;-59
2022/01/31 01:34:25;;;;;;;29.10;9.43;;;;;;;;;;5164240;27;20058;-58
2022/01/31 01:36:53;;;;;;;23.42;9.05;;;;;;;;;;5166570;27;20043;-59
2022/01/31 01:39:19;;;;;;;;;;;;;;;;;;5167681;27;20102;-59
2022/01/31 01:41:45;;;;;;;24.73;10.60;;;;;;;;;;5167039;27;19926;-60
2022/01/31 01:44:11;;;;;;;34.75;11.80;;;;;;;;;;5147747;27;20107;-59
2022/01/31 01:46:37;;;;;;;30.40;14.30;;;;;;;;;;5145891;27;20039;-60
2022/01/31 01:49:04;;;;;;;32.95;12.88;;;;;;;;;;5146105;27;20043;-60
2022/01/31 01:51:30;;;;;;;37.22;13.73;;;;;;;;;;5145153;27;20511;-61
2022/01/31 01:53:58;;;;;;;23.23;11.40;;;;;;;;;;5146967;27;20458;-61
2022/01/31 01:56:24;;;;;;;30.02;12.60;;;;;;;;;;5165345;27;20038;-61
2022/01/31 01:58:50;;;;;;;33.65;13.95;;;;;;;;;;5156029;27;20043;-61
2022/01/31 02:01:16;;;;;;;35.20;14.43;;;;;;;;;;5145513;27;20046;-62
2022/01/31 02:03:42;;;;;;;38.13;16.55;;;;;;;;;;5160175;27;20642;-61
2022/01/31 02:06:08;;;;;;;32.72;15.18;;;;;;;;;;5166136;27;20076;-61
2022/01/31 02:08:42;;;;;;;26.83;13.52;;;;;;;;;;5166580;27;20062;-61
2022/01/31 02:11:10;;;;;;;32.60;14.95;;;;;;;;;;5166573;27;20081;-61
2022/01/31 02:13:36;;;;;;;32.80;14.10;;;;;;;;;;5150770;27;20035;-61
2022/01/31 02:16:03;;;;;;;36.83;16.70;;;;;;;;;;5145537;27;20050;-61
2022/01/31 02:18:30;;;;;;;32.85;13.75;;;;;;;;;;5145247;27;20043;-61
2022/01/31 02:20:56;;;;;;;26.33;14.67;;;;;;;;;;5143532;27;20055;-62
2022/01/31 02:23:23;;;;;;;33.30;16.77;;;;;;;;;;5160244;27;20308;-62
2022/01/31 02:25:55;;;;;;;33.75;16.15;;;;;;;;;;5166471;27;20061;-63
2022/01/31 02:28:22;;;;;;;35.10;16.58;;;;;;;;;;5166203;27;20489;-63
2022/01/31 02:30:48;;;;;;;19.73;11.50;;;;;;;;;;5166087;27;20450;-62
2022/01/31 02:33:15;;;;;;;29.67;15.85;;;;;;;;;;5151681;27;20074;-62
2022/01/31 02:35:41;;;;;;;23.13;14.18;;;;;;;;;;5145348;27;20047;-62
2022/01/31 02:38:07;;;;;;;24.55;13.02;;;;;;;;;;5145261;28;20043;-63
2022/01/31 02:40:33;;;;;;;18.98;11.02;;;;;;;;;;5145536;28;20110;-62
2022/01/31 02:42:59;;;;;;;20.95;13.52;;;;;;;;;;5154921;27;20046;-62
2022/01/31 02:45:25;;;;;;;27.77;14.90;;;;;;;;;;5166036;27;20066;-62
2022/01/31 02:47:55;;;;;;;26.30;13.73;;;;;;;;;;5158253;27;20062;-63
2022/01/31 02:50:21;;;;;;;28.08;17.20;;;;;;;;;;5145146;28;20058;-63
2022/01/31 02:52:56;;;;;;;31.35;17.23;;;;;;;;;;5153690;27;20070;-64
2022/01/31 02:55:22;;;;;;;31.67;17.85;;;;;;;;;;5164220;27;20058;-63
2022/01/31 02:57:48;;;;;;;34.80;19.08;;;;;;;;;;5165942;27;20039;-63
2022/01/31 03:00:15;;;;;;;28.55;16.73;;;;;;;;;;5165931;27;20038;-62
2022/01/31 03:02:41;;;;;;;28.05;15.65;;;;;;;;;;5154982;27;20074;-62
2022/01/31 03:05:07;;;;;;;31.70;17.38;;;;;;;;;;5145318;28;20039;-62
2022/01/31 03:07:34;;;;;;;29.15;17.90;;;;;;;;;;5144432;28;20034;-63
2022/01/31 03:10:01;;;;;;;30.85;17.02;;;;;;;;;;5145270;27;20474;-62
2022/01/31 03:12:28;;;;;;;30.63;18.27;;;;;;;;;;5152508;27;20043;-63
2022/01/31 03:14:54;;;;;;;34.90;16.52;;;;;;;;;;5165811;27;20099;-63
2022/01/31 03:17:20;;;;;;;31.65;16.30;;;;;;;;;;5164221;27;20043;-64
2022/01/31 03:19:52;;;;;;;31.70;17.17;;;;;;;;;;5165834;27;20043;-64
2022/01/31 03:22:20;;;;;;;35.97;16.33;;;;;;;;;;5155957;27;20039;-62
2022/01/31 03:24:48;;;;;;;32.80;15.95;;;;;;;;;;5145166;27;20041;-63
2022/01/31 03:27:14;;;;;;;;;;;;;;;;;;5145089;27;20071;-63
2022/01/31 03:29:40;;;;;;;27.50;13.18;;;;;;;;;;5145057;27;19919;-63
2022/01/31 03:32:06;;;;;;;31.58;15.10;;;;;;;;;;5151334;27;20038;-63
2022/01/31 03:34:32;;;;;;;21.48;14.15;;;;;;;;;;5165587;27;20049;-63
2022/01/31 03:36:58;;;;;;;25.23;13.77;;;;;;;;;;5165237;27;20041;-63
2022/01/31 03:39:24;;;;;;;26.35;12.80;;;;;;;;;;5145453;27;20503;-62
2022/01/31 03:41:51;;;;;;;25.17;11.95;;;;;;;;;;5149174;27;20039;-62
2022/01/31 03:44:17;;;;;;;25.23;11.85;;;;;;;;;;5165489;27;20057;-62
2022/01/31 03:46:43;;;;;;;23.33;11.48;;;;;;;;;;5167587;27;20409;-62
2022/01/31 03:49:09;;;;;;;30.83;10.95;;;;;;;;;;5169262;27;20039;-62
2022/01/31 03:51:35;;;;;;;31.38;8.25;;;;;;;;;;5166130;27;20045;-62
2022/01/31 03:54:03;;;;;;;33.88;6.57;;;;;;;;;;5147145;27;20055;-63
2022/01/31 03:56:29;;;;;;;25.80;6.00;;;;;;;;;;5148193;27;20122;-62
2022/01/31 03:58:55;;;;;;;32.20;5.75;;;;;;;;;;5148157;27;20040;-62
2022/01/31 04:01:23;;;;;;;40.30;5.70;;;;;;;;;;5127593;27;20047;-62
2022/01/31 04:03:49;;;;;;;;;;;;;;;;;;5127977;28;20042;-61
2022/01/31 04:06:15;;;;;;;22.10;3.00;;;;;;;;;;5127212;28;19920;-62
2022/01/31 04:08:42;;;;;;;21.52;3.70;;;;;;;;;;5127340;28;20063;-63
2022/01/31 04:11:10;;;;;;;14.45;2.83;;;;;;;;;;5127558;27;20047;-63
2022/01/31 04:13:36;;;;;;;15.70;2.22;;;;;;;;;;5127237;28;20514;-63
2022/01/31 04:16:02;;;;;;;14.55;2.70;;;;;;;;;;5127201;28;20331;-63
2022/01/31 04:18:29;;;;;;;20.75;3.58;;;;;;;;;;5127082;28;20162;-63
2022/01/31 04:20:55;;;;;;;15.68;3.35;;;;;;;;;;5126634;28;20086;-63
2022/01/31 04:23:27;;;;;;;24.70;4.47;;;;;;;;;;5164218;27;20039;-62
2022/01/31 04:26:01;;;;;;;25.48;3.50;;;;;;;;;;5168375;27;20041;-62
2022/01/31 04:28:32;;;;;;;18.88;2.83;;;;;;;;;;5153893;27;20043;-62
2022/01/31 04:31:49;;;;;;;27.45;3.70;;;;;;;;;;5147501;27;20074;-62
2022/01/31 04:33:45;;;;;;;26.05;4.13;;;;;;;;;;5152333;27;20058;-62
2022/01/31 04:36:14;;;;;;;23.73;3.35;;;;;;;;;;5168167;27;20098;-62
2022/01/31 04:38:40;;;;;;;22.85;2.95;;;;;;;;;;5168413;27;20098;-62
2022/01/31 04:41:07;;;;;;;24.77;3.58;;;;;;;;;;5168183;27;20039;-62
2022/01/31 04:43:33;;;;;;;31.23;4.45;;;;;;;;;;5154031;27;20043;-61
2022/01/31 04:46:02;;;;;;;23.88;3.85;;;;;;;;;;5147196;27;20043;-61
2022/01/31 04:48:28;;;;;;;30.27;3.63;;;;;;;;;;5146936;27;20031;-60
2022/01/31 04:50:54;;;;;;;17.95;3.50;;;;;;;;;;5146581;27;20066;-61
2022/01/31 04:53:21;;;;;;;31.45;5.03;;;;;;;;;;5158750;27;20106;-62
2022/01/31 04:55:47;;;;;;;33.50;3.67;;;;;;;;;;5167783;27;20046;-62
2022/01/31 04:58:13;;;;;;;16.85;3.22;;;;;;;;;;5167664;27;20379;-63
2022/01/31 05:00:40;;;;;;;24.05;3.08;;;;;;;;;;5166443;27;20074;-62
2022/01/31 05:03:12;;;;;;;24.58;4.72;;;;;;;;;;5158624;27;20043;-61
2022/01/31 05:05:39;;;;;;;16.55;3.20;;;;;;;;;;5147167;27;20042;-61
2022/01/31 05:08:05;;;;;;;14.95;3.38;;;;;;;;;;5146279;27;20633;-61
2022/01/31 05:10:34;;;;;;;30.45;4.03;;;;;;;;;;5146738;27;20555;-62
2022/01/31 05:13:00;;;;;;;17.63;2.55;;;;;;;;;;5146876;27;20039;-62
2022/01/31 05:15:26;;;;;;;24.10;3.95;;;;;;;;;;5146697;27;20047;-61
2022/01/31 05:17:52;;;;;;;14.75;2.40;;;;;;;;;;5146314;27;20478;-61
2022/01/31 05:20:18;;;;;;;10.68;2.55;;;;;;;;;;5146894;27;20046;-61
2022/01/31 05:22:44;;;;;;;11.10;2.25;;;;;;;;;;5153721;27;20082;-61
2022/01/31 05:25:10;;;;;;;10.05;1.90;;;;;;;;;;5167186;27;20521;-61
2022/01/31 05:27:36;;;;;;;11.32;1.92;;;;;;;;;;5167043;27;20066;-61
2022/01/31 05:30:04;;;;;;;7.13;1.73;;;;;;;;;;5166932;27;20057;-60
2022/01/31 05:32:30;;;;;;;4.95;1.35;;;;;;;;;;5165044;27;20402;-61
2022/01/31 05:34:56;;;;;;;6.82;1.52;;;;;;;;;;5167382;27;20270;-60
2022/01/31 05:37:22;;;;;;;6.25;1.80;;;;;;;;;;5166496;27;20112;-60
2022/01/31 05:39:48;;;;;;;10.43;1.88;;;;;;;;;;5167041;27;20043;-61
2022/01/31 05:42:15;;;;;;;20.35;2.65;;;;;;;;;;5162894;27;20047;-60
2022/01/31 05:44:43;;;;;;;17.65;2.78;;;;;;;;;;5146180;27;20046;-61
2022/01/31 05:47:09;;;;;;;19.77;3.28;;;;;;;;;;5146314;27;20118;-61
2022/01/31 05:49:36;;;;;;;21.00;2.65;;;;;;;;;;5144735;27;20135;-61
2022/01/31 05:52:05;;;;;;;20.10;3.25;;;;;;;;;;5146512;27;20043;-61
2022/01/31 05:54:32;;;;;;;16.52;2.35;;;;;;;;;;5166496;27;20055;-61
2022/01/31 05:56:59;;;;;;;22.05;2.95;;;;;;;;;;5166528;27;20042;-61
2022/01/31 05:59:25;;;;;;;23.08;3.03;;;;;;;;;;5166664;27;20329;-61
2022/01/31 06:01:51;;;;;;;13.43;2.88;;;;;;;;;;5154151;27;20047;-61
2022/01/31 06:04:18;;;;;;;12.00;1.88;;;;;;;;;;5145808;27;20054;-61
2022/01/31 06:06:44;;;;;;;7.63;1.90;;;;;;;;;;5144958;27;20079;-61
2022/01/31 06:09:10;;;;;;;17.42;2.38;;;;;;;;;;5145035;27;20116;-61
2022/01/31 06:11:36;;;;;;;17.42;2.50;;;;;;;;;;5154779;27;20085;-61
2022/01/31 06:14:03;;;;;;;26.65;2.78;;;;;;;;;;5164478;27;20054;-61
2022/01/31 06:16:29;;;;;;;9.63;1.65;;;;;;;;;;5145644;27;20040;-61
2022/01/31 06:18:56;;;;;;;16.63;2.65;;;;;;;;;;5145478;27;20047;-61
2022/01/31 06:21:22;;;;;;;15.85;2.00;;;;;;;;;;5147118;27;20031;-61
2022/01/31 06:23:48;;;;;;;12.18;2.92;;;;;;;;;;5145684;27;20049;-61
2022/01/31 06:26:14;;;;;;;13.10;1.70;;;;;;;;;;5145307;27;20095;-61
2022/01/31 06:28:40;;;;;;;21.40;2.85;;;;;;;;;;5145327;27;20051;-62
2022/01/31 06:31:06;;;;;;;19.42;3.97;;;;;;;;;;5150145;27;20053;-61
2022/01/31 06:33:32;;;;;;;23.52;3.97;;;;;;;;;;5165582;27;20058;-61
2022/01/31 06:35:59;;;;;;;11.63;1.92;;;;;;;;;;5165750;27;20106;-61
2022/01/31 06:38:25;;;;;;;17.60;2.53;;;;;;;;;;5166044;27;20042;-61
2022/01/31 06:40:52;;;;;;;22.38;3.20;;;;;;;;;;5161978;27;20098;-61
2022/01/31 06:43:18;;;;;;;24.63;2.90;;;;;;;;;;5166531;27;20102;-61
2022/01/31 06:45:44;;;;;;;19.70;2.63;;;;;;;;;;5165835;27;20110;-61
2022/01/31 06:48:10;;;;;;;18.65;2.28;;;;;;;;;;5165569;27;20538;-61
2022/01/31 06:50:36;;;;;;;22.27;2.67;;;;;;;;;;5152314;27;20051;-61
2022/01/31 06:53:05;;;;;;;23.40;2.75;;;;;;;;;;5144681;28;20088;-61
2022/01/31 06:55:33;;;;;;;19.17;3.50;;;;;;;;;;5144960;27;20521;-61
2022/01/31 06:58:00;;;;;;;18.60;3.05;;;;;;;;;;5145591;27;20035;-61
2022/01/31 07:00:26;;;;;;;12.68;2.78;;;;;;;;;;5156558;27;20558;-61
2022/01/31 07:02:52;;;;;;;24.10;2.53;;;;;;;;;;5165515;27;20046;-61
2022/01/31 07:05:19;;;;;;;19.85;3.60;;;;;;;;;;5165966;27;20439;-61
2022/01/31 07:07:45;;;;;;;22.25;2.88;;;;;;;;;;5154955;27;20058;-61
2022/01/31 07:10:11;;;;;;;26.63;3.85;;;;;;;;;;5156023;27;20065;-61
2022/01/31 07:12:40;;;;;;;9.50;2.55;;;;;;;;;;5144750;28;20043;-61
2022/01/31 07:15:10;;;;;;;17.10;3.20;;;;;;;;;;5144466;27;20495;-61
2022/01/31 07:17:37;;;;;;;19.13;2.45;;;;;;;;;;5149378;27;20051;-61
2022/01/31 07:20:12;;;;;;;18.98;2.28;;;;;;;;;;5136272;27;20040;-61
2022/01/31 07:22:39;;;;;;;23.88;3.05;;;;;;;;;;5145389;27;20107;-61
2022/01/31 07:25:09;;;;;;;18.67;2.70;;;;;;;;;;5147920;27;20092;-61
2022/01/31 07:27:36;;;;;;;21.23;2.78;;;;;;;;;;5148143;27;20049;-61
2022/01/31 07:30:06;;;;;;;19.05;3.22;;;;;;;;;;5148255;27;20067;-61
2022/01/31 07:32:35;;;;;;;18.55;2.50;;;;;;;;;;5151955;27;20043;-61
2022/01/31 07:35:01;;;;;;;16.63;2.42;;;;;;;;;;5148465;27;20059;-60
2022/01/31 07:37:27;;;;;;;23.65;6.05;;;;;;;;;;5147765;27;20103;-61
2022/01/31 07:39:53;;;;;;;24.30;2.72;;;;;;;;;;5147833;27;20521;-61
2022/01/31 07:42:19;;;;;;;21.35;2.63;;;;;;;;;;5148343;27;20041;-60
2022/01/31 07:44:46;;;;;;;14.80;2.55;;;;;;;;;;5148049;27;20502;-60
2022/01/31 07:47:12;;;;;;;16.58;2.97;;;;;;;;;;5148082;27;20055;-60
2022/01/31 07:49:38;;;;;;;14.80;2.25;;;;;;;;;;5148057;27;20059;-60
2022/01/31 07:52:05;;;;;;;14.35;2.20;;;;;;;;;;5160658;27;20043;-61
2022/01/31 07:54:31;;;;;;;16.88;2.80;;;;;;;;;;5151683;27;20092;-61
2022/01/31 07:56:57;;;;;;;25.10;2.53;;;;;;;;;;5155909;27;20050;-60
2022/01/31 07:59:24;;;;;;;12.75;1.90;;;;;;;;;;5148236;27;20111;-61
2022/01/31 08:01:51;;;;;;;19.20;2.15;;;;;;;;;;5147551;27;20042;-59
2022/01/31 08:04:17;;;;;;;5.22;1.48;;;;;;;;;;5151224;27;20035;-60
2022/01/31 08:06:43;;;;;;;14.55;2.47;;;;;;;;;;5147796;27;20122;-60
2022/01/31 08:09:09;;;;;;;10.02;1.55;;;;;;;;;;5147777;27;20082;-60
2022/01/31 08:11:35;;;;;;;16.80;2.30;;;;;;;;;;5147316;27;20054;-61
2022/01/31 08:14:07;;;;;;;13.68;2.15;;;;;;;;;;5148809;27;20078;-60
2022/01/31 08:16:34;;;;;;;14.40;2.45;;;;;;;;;;5147211;27;20414;-60
2022/01/31 08:19:00;;;;;;;12.15;1.80;;;;;;;;;;5147554;27;20050;-60
2022/01/31 08:21:26;;;;;;;12.05;2.58;;;;;;;;;;5145696;27;20066;-60
2022/01/31 08:23:53;;;;;;;13.05;1.75;;;;;;;;;;5150987;27;20138;-60
2022/01/31 08:26:20;;;;;;;22.73;2.70;;;;;;;;;;5146695;27;20043;-61
2022/01/31 08:28:55;;;;;;;16.10;2.38;;;;;;;;;;5146790;27;20070;-60
2022/01/31 08:31:28;;;;;;;7.70;1.75;;;;;;;;;;5137177;27;20047;-62
2022/01/31 08:35:47;;;;;;;18.73;2.88;;;;;;;;;;5148043;27;20047;-60
2022/01/31 08:36:44;;;;;;;22.50;3.90;;;;;;;;;;5139099;27;20075;-62
2022/01/31 08:39:14;;;;;;;18.73;2.33;;;;;;;;;;5140586;27;20933;-60
2022/01/31 08:41:43;;;;;;;16.88;2.10;;;;;;;;;;5144070;27;20062;-60
2022/01/31 08:44:17;;;;;;;12.57;2.38;;;;;;;;;;5140478;27;20040;-60
2022/01/31 08:46:43;;;;;;;11.43;2.40;;;;;;;;;;5143835;27;20047;-60
2022/01/31 08:49:10;;;;;;;15.80;2.30;;;;;;;;;;5145528;27;20050;-60
2022/01/31 08:51:37;;;;;;;14.27;2.73;;;;;;;;;;5147702;27;20043;-61
2022/01/31 08:54:06;;;;;;;25.80;2.65;;;;;;;;;;5146283;27;20053;-60
2022/01/31 08:56:35;;;;;;;18.73;2.67;;;;;;;;;;5145555;27;20047;-60
2022/01/31 08:59:03;;;;;;;20.65;2.65;;;;;;;;;;5146298;27;20046;-61
2022/01/31 09:01:29;;;;;;;13.48;1.70;;;;;;;;;;5145922;27;20035;-61
2022/01/31 09:04:01;;;;;;;25.42;1.92;;;;;;;;;;5144966;27;20403;-60
2022/01/31 09:06:28;;;;;;;16.27;1.85;;;;;;;;;;5145817;27;20039;-60
2022/01/31 09:08:55;;;;;;;9.45;1.92;;;;;;;;;;5146161;27;20051;-61
2022/01/31 09:11:21;;;;;;;17.10;1.98;;;;;;;;;;5145800;27;20043;-60
2022/01/31 09:13:47;;;;;;;18.55;2.25;;;;;;;;;;5145677;27;20040;-60
2022/01/31 09:16:14;;;;;;;8.07;1.23;;;;;;;;;;5145855;27;20035;-60
2022/01/31 09:18:40;;;;;;;8.98;1.15;;;;;;;;;;5145994;27;20054;-60
2022/01/31 09:21:06;;;;;;;10.65;1.65;;;;;;;;;;5144582;27;20103;-60
2022/01/31 09:23:32;;;;;;;8.10;0.90;;;;;;;;;;5145493;27;20036;-61
2022/01/31 09:25:59;;;;;;;13.00;1.10;;;;;;;;;;5138287;27;20043;-61
2022/01/31 09:28:25;;;;;;;10.98;1.00;;;;;;;;;;5144546;27;20536;-61
2022/01/31 09:30:55;;;;;;;7.28;1.75;;;;;;;;;;5146129;27;20059;-61
2022/01/31 09:33:21;;;;;;;14.50;1.45;;;;;;;;;;5136270;27;20051;-61
2022/01/31 09:35:47;;;;;;;8.43;1.60;;;;;;;;;;5133276;27;20058;-61
2022/01/31 09:38:16;;;;;;;8.25;1.83;;;;;;;;;;5139369;27;20115;-61
2022/01/31 09:40:43;;;;;;;13.25;1.55;;;;;;;;;;5138020;27;20050;-68
2022/01/31 09:48:33;;;;;;;8.23;1.85;;;;;;;;;;5159936;27;20488;-63
2022/01/31 09:51:10;;;;;;;13.32;1.90;;;;;;;;;;5133195;27;20047;-63
2022/01/31 09:53:40;;;;;;;8.05;1.52;;;;;;;;;;5142781;27;20051;-64
2022/01/31 09:56:09;;;;;;;19.10;2.40;;;;;;;;;;5137261;27;20528;-65
2022/01/31 09:58:35;;;;;;;10.45;1.67;;;;;;;;;;5145175;27;20051;-64
2022/01/31 10:01:06;;;;;;;8.98;1.58;;;;;;;;;;5145339;27;20046;-64
2022/01/31 10:03:32;;;;;;;21.73;2.33;;;;;;;;;;5143463;27;20040;-63
2022/01/31 10:05:58;;;;;;;10.98;1.60;;;;;;;;;;5144043;27;20070;-63
2022/01/31 10:08:28;;;;;;;11.85;1.50;;;;;;;;;;5141954;27;20051;-63
2022/01/31 10:11:00;;;;;;;12.65;2.10;;;;;;;;;;5140482;27;20054;-63
2022/01/31 10:19:00;;;;;;;17.35;2.75;;;;;;;;;;5145865;27;20051;-63
2022/01/31 10:21:27;;;;;;;13.60;2.45;;;;;;;;;;5129784;27;20047;-64
2022/01/31 10:23:53;;;;;;;15.38;1.70;;;;;;;;;;5144550;27;20039;-61
2022/01/31 10:26:29;;;;;;;16.38;2.72;;;;;;;;;;5139323;27;20126;-65
2022/01/31 10:29:31;;;;;;;14.63;2.72;;;;;;;;;;5140161;27;20038;-63
2022/01/31 10:32:03;;;;;;;17.58;2.55;;;;;;;;;;5074119;28;20069;-63
2022/01/31 10:34:31;;;;;;;13.25;1.98;;;;;;;;;;5077018;28;20101;-65
2022/01/31 10:37:10;;;;;;;19.05;3.10;;;;;;;;;;5081559;28;20109;-63
2022/01/31 10:53:19;;;;;;;16.27;2.50;;;;;;;;;;5078327;28;20051;-64
2022/01/31 10:55:55;;;;;;;13.70;2.13;;;;;;;;;;5077412;28;20048;-63
2022/01/31 10:58:22;;;;;;;15.10;1.98;;;;;;;;;;5085289;28;20055;-63
2022/01/31 11:00:48;;;;;;;18.60;2.55;;;;;;;;;;5082520;28;20041;-66
2022/01/31 11:03:32;;;;;;;14.52;2.28;;;;;;;;;;5075795;28;20116;-63
2022/01/31 11:06:01;;;;;;;16.10;2.28;;;;;;;;;;5106571;27;20078;-62
2022/01/31 11:08:28;;;;;;;13.88;2.78;;;;;;;;;;5147856;27;20110;-62
2022/01/31 11:10:58;;;;;;;14.93;3.50;;;;;;;;;;5154430;27;20510;-63
2022/01/31 11:13:25;;;;;;;9.80;2.13;;;;;;;;;;5137381;27;20031;-60
2022/01/31 11:15:52;;;;;;;16.17;2.35;;;;;;;;;;5144316;27;20082;-61
2022/01/31 11:18:18;;;;;;;18.15;2.75;;;;;;;;;;5145519;27;20035;-63
2022/01/31 11:20:45;;;;;;;16.50;2.03;;;;;;;;;;5144558;27;20058;-62
2022/01/31 11:23:12;;;;;;;20.65;2.60;;;;;;;;;;5141354;27;20122;-64
2022/01/31 11:25:41;;;;;;;24.47;3.20;;;;;;;;;;5141937;27;20070;-66
2022/01/31 11:28:10;;;;;;;19.92;2.97;;;;;;;;;;5147157;27;20292;-67
2022/01/31 11:30:36;;;;;;;21.73;2.90;;;;;;;;;;5131936;27;20042;-64
2022/01/31 11:33:03;;;;;;;23.02;2.80;;;;;;;;;;5133740;27;20039;-64
2022/01/31 11:35:29;;;;;;;17.70;3.08;;;;;;;;;;5142247;27;20035;-61
2022/01/31 11:37:56;;;;;;;10.27;2.55;;;;;;;;;;5145810;27;20094;-65
2022/01/31 11:40:22;;;;;;;19.73;2.97;;;;;;;;;;5142478;27;20043;-63
2022/01/31 11:42:50;;;;;;;20.02;2.58;;;;;;;;;;5144633;27;20050;-62
2022/01/31 11:45:16;;;;;;;17.15;2.90;;;;;;;;;;5146049;27;20043;-63
2022/01/31 11:47:43;;;;;;;16.67;3.17;;;;;;;;;;5147701;27;20043;-63
2022/01/31 11:50:14;;;;;;;24.48;4.07;;;;;;;;;;5144618;27;20035;-63
2022/01/31 11:52:47;;;;;;;20.40;2.97;;;;;;;;;;5146429;27;20043;-66
2022/01/31 11:55:15;;;;;;;16.48;2.80;;;;;;;;;;5146324;27;20043;-67
2022/01/31 11:57:45;;;;;;;29.15;2.92;;;;;;;;;;5147273;27;20055;-66
2022/01/31 12:00:12;;;;;;;21.58;3.67;;;;;;;;;;5146085;27;20043;-68
2022/01/31 12:02:45;;;;;;;16.73;3.13;;;;;;;;;;5142120;27;20070;-59
2022/01/31 12:05:14;;;;;;;15.15;2.38;;;;;;;;;;5143492;27;20031;-60
2022/01/31 12:07:40;;;;;;;14.07;2.10;;;;;;;;;;5142014;27;20095;-60
2022/01/31 12:10:26;;;;;;;17.00;2.75;;;;;;;;;;5139394;27;20057;-60
2022/01/31 12:23:53;;;;;;;14.95;3.78;;;;;;;;;;5097638;28;20419;-60
2022/01/31 12:26:31;;;;;;;16.13;2.53;;;;;;;;;;5101337;28;20059;-60
2022/01/31 12:28:59;;;;;;;17.23;3.00;;;;;;;;;;5093668;28;20060;-59
2022/01/31 12:31:28;;;;;;;21.77;3.30;;;;;;;;;;5097864;28;20115;-59
2022/01/31 12:33:54;;;;;;;22.45;3.28;;;;;;;;;;5100256;28;20041;-60
2022/01/31 12:36:32;;;;;;;21.90;3.53;;;;;;;;;;5092632;28;20071;-60
2022/01/31 12:38:59;;;;;;;17.05;3.33;;;;;;;;;;5096084;28;20048;-60
2022/01/31 12:41:30;;;;;;;19.25;3.40;;;;;;;;;;5096552;28;20126;-62
2022/01/31 12:44:16;;;;;;;17.35;2.80;;;;;;;;;;5096141;28;20040;-61
2022/01/31 12:46:49;;;;;;;23.67;3.72;;;;;;;;;;5088015;28;20195;-63
2022/01/31 12:49:15;;;;;;;29.48;3.35;;;;;;;;;;5093748;28;20041;-63
2022/01/31 12:51:58;;;;;;;17.90;2.53;;;;;;;;;;5092359;28;20448;-62
2022/01/31 12:54:24;;;;;;;20.40;4.20;;;;;;;;;;5097344;28;20047;-61
2022/01/31 12:56:51;;;;;;;19.67;3.47;;;;;;;;;;5098798;28;20190;-62
2022/01/31 12:59:17;;;;;;;24.88;2.75;;;;;;;;;;5136381;27;20104;-64
2022/01/31 13:01:50;;;;;;;22.38;4.15;;;;;;;;;;5142415;27;20043;-61
2022/01/31 13:04:24;;;;;;;22.10;3.53;;;;;;;;;;5137400;27;20046;-69
2022/01/31 13:06:52;;;;;;;27.83;4.20;;;;;;;;;;5139480;27;20047;-61
2022/01/31 13:09:21;;;;;;;26.70;3.30;;;;;;;;;;5140526;27;20065;-61
2022/01/31 13:11:59;;;;;;;26.88;2.72;;;;;;;;;;5142414;27;20039;-60
2022/01/31 13:14:30;;;;;;;18.35;3.60;;;;;;;;;;5143003;27;20047;-60
2022/01/31 13:17:02;;;;;;;23.63;3.92;;;;;;;;;;5140718;27;20415;-64
2022/01/31 13:19:33;;;;;;;23.50;2.97;;;;;;;;;;5138067;27;20335;-66
2022/01/31 13:22:00;;;;;;;16.98;2.72;;;;;;;;;;5138986;27;20521;-64
2022/01/31 13:24:34;;;;;;;24.75;3.13;;;;;;;;;;5143844;27;20043;-63
2022/01/31 13:27:01;;;;;;;29.52;2.50;;;;;;;;;;5136150;27;20097;-66
2022/01/31 13:29:37;;;;;;;23.25;3.30;;;;;;;;;;5140243;27;20054;-63
2022/01/31 13:32:33;;;;;;;30.05;4.57;;;;;;;;;;5146517;27;20047;-63
2022/01/31 13:35:01;;;;;;;20.63;3.28;;;;;;;;;;5121207;27;20522;-64
2022/01/31 13:37:35;;;;;;;18.10;2.97;;;;;;;;;;5146294;27;20056;-64
2022/01/31 13:40:11;;;;;;;21.98;3.17;;;;;;;;;;5137049;27;20054;-63
2022/01/31 13:42:40;;;;;;;24.15;3.38;;;;;;;;;;5142483;27;20226;-65
2022/01/31 13:45:27;;;;;;;17.65;3.38;;;;;;;;;;5146649;27;20116;-64
2022/01/31 13:47:58;;;;;;;17.40;2.35;;;;;;;;;;5142834;27;20098;-65
2022/01/31 13:50:40;;;;;;;28.00;3.80;;;;;;;;;;5140426;27;20081;-63
2022/01/31 13:53:10;;;;;;;21.95;3.78;;;;;;;;;;5143327;27;20040;-60
2022/01/31 13:55:41;;;;;;;23.17;3.35;;;;;;;;;;5144170;27;20086;-60
2022/01/31 13:58:07;;;;;;;16.90;2.97;;;;;;;;;;5137354;27;20038;-60
2022/01/31 14:00:34;;;;;;;29.63;5.00;;;;;;;;;;5141747;27;20046;-59
2022/01/31 14:03:09;;;;;;;12.90;2.77;;;;;;;;;;5137609;27;20040;-62
2022/01/31 14:05:36;;;;;;;15.73;3.25;;;;;;;;;;5134565;27;20308;-61
2022/01/31 14:08:06;;;;;;;20.83;4.75;;;;;;;;;;5145350;27;20066;-61
2022/01/31 14:10:33;;;;;;;21.58;3.35;;;;;;;;;;5146295;27;20078;-61
2022/01/31 14:13:00;;;;;;;20.55;2.65;;;;;;;;;;5146638;27;20031;-62
2022/01/31 14:15:27;;;;;;;24.65;3.05;;;;;;;;;;5145136;27;20035;-59
2022/01/31 14:17:53;;;;;;;18.67;2.92;;;;;;;;;;5141440;27;20545;-59
2022/01/31 14:20:24;;;;;;;14.13;2.28;;;;;;;;;;5142935;27;20071;-62
2022/01/31 14:22:58;;;;;;;6.85;1.70;;;;;;;;;;5142521;27;20032;-59
2022/01/31 14:25:24;;;;;;;14.00;2.05;;;;;;;;;;5142811;27;20047;-64
2022/01/31 14:27:54;;;;;;;14.38;2.50;;;;;;;;;;5150405;27;20039;-63
2022/01/31 14:30:21;;;;;;;11.45;2.80;;;;;;;;;;5142136;27;20062;-64
2022/01/31 14:33:20;;;;;;;10.65;2.10;;;;;;;;;;5138808;27;20043;-62
2022/01/31 14:35:46;;;;;;;14.43;2.47;;;;;;;;;;5077815;28;20099;-64
2022/01/31 14:38:21;;;;;;;11.20;2.05;;;;;;;;;;5086794;28;20098;-61
2022/01/31 14:47:15;;;;;;;9.73;3.28;;;;;;;;;;5091383;28;20048;-65
2022/01/31 14:48:57;;;;;;;17.30;4.13;;;;;;;;;;5078804;28;20116;-66
2022/01/31 14:51:24;;;;;;;13.60;6.32;;;;;;;;;;5066177;28;20076;-66
2022/01/31 14:53:57;;;;;;;20.63;7.18;;;;;;;;;;5087324;28;20060;-61
2022/01/31 14:56:24;;;;;;;18.00;6.88;;;;;;;;;;5079505;28;20112;-63
2022/01/31 14:58:50;;;;;;;21.50;7.30;;;;;;;;;;5078026;28;20055;-66
2022/01/31 15:01:16;;;;;;;18.23;7.20;;;;;;;;;;5081069;28;20094;-66
2022/01/31 15:03:43;;;;;;;19.80;6.93;;;;;;;;;;5091316;28;20679;-65
2022/01/31 15:06:09;;;;;;;14.82;6.05;;;;;;;;;;5080373;28;20041;-65
2022/01/31 15:08:35;;;;;;;19.48;7.75;;;;;;;;;;5082232;28;20084;-65
2022/01/31 15:11:02;;;;;;;19.33;7.22;;;;;;;;;;5104282;27;20114;-66
2022/01/31 15:13:28;;;;;;;18.85;7.57;;;;;;;;;;5147095;27;20090;-65
2022/01/31 15:15:55;;;;;;;21.08;7.63;;;;;;;;;;5142926;28;20051;-65
2022/01/31 15:18:22;;;;;;;10.23;4.20;;;;;;;;;;5143370;27;20053;-65